sensor_id;sensor_type;location;lat;lon;timestamp;P1;durP1;ratioP1;P2;durP2;ratioP2
16472;SDS011;8347;52.486;13.432;2022-10-16T00:00:26;7.38;;;5.22;;
16472;SDS011;8347;52.486;13.432;2022-10-16T00:03:12;7.32;;;5.10;;
16472;SDS011;8347;52.486;13.432;2022-10-16T00:06:00;9.38;;;4.72;;
16472;SDS011;8347;52.486;13.432;2022-10-16T00:08:47;6.68;;;5.07;;
16472;SDS011;8347;52.486;13.432;2022-10-16T00:11:35;9.15;;;4.97;;
16472;SDS011;8347;52.486;13.432;2022-10-16T00:14:22;6.05;;;4.28;;
16472;SDS011;8347;52.486;13.432;2022-10-16T00:17:08;4.60;;;3.95;;
16472;SDS011;8347;52.486;13.432;2022-10-16T00:19:55;3.80;;;3.20;;
16472;SDS011;8347;52.486;13.432;2022-10-16T00:22:42;7.93;;;3.88;;
16472;SDS011;8347;52.486;13.432;2022-10-16T00:25:29;5.25;;;4.00;;
16472;SDS011;8347;52.486;13.432;2022-10-16T00:28:18;4.03;;;3.53;;
16472;SDS011;8347;52.486;13.432;2022-10-16T00:31:05;4.47;;;3.65;;
16472;SDS011;8347;52.486;13.432;2022-10-16T00:33:52;3.85;;;3.40;;
16472;SDS011;8347;52.486;13.432;2022-10-16T00:36:39;4.32;;;3.20;;
16472;SDS011;8347;52.486;13.432;2022-10-16T00:39:25;4.28;;;3.42;;
16472;SDS011;8347;52.486;13.432;2022-10-16T00:42:15;5.90;;;3.97;;
16472;SDS011;8347;52.486;13.432;2022-10-16T00:45:03;9.50;;;5.45;;
16472;SDS011;8347;52.486;13.432;2022-10-16T00:47:50;6.72;;;4.93;;
16472;SDS011;8347;52.486;13.432;2022-10-16T00:50:38;4.18;;;3.33;;
16472;SDS011;8347;52.486;13.432;2022-10-16T00:53:28;4.18;;;3.47;;
16472;SDS011;8347;52.486;13.432;2022-10-16T00:56:15;4.07;;;3.05;;
16472;SDS011;8347;52.486;13.432;2022-10-16T00:59:07;3.63;;;3.15;;
16472;SDS011;8347;52.486;13.432;2022-10-16T01:02:00;3.47;;;3.17;;
16472;SDS011;8347;52.486;13.432;2022-10-16T01:04:48;4.20;;;3.03;;
16472;SDS011;8347;52.486;13.432;2022-10-16T01:13:21;3.05;;;2.55;;
16472;SDS011;8347;52.486;13.432;2022-10-16T05:01:39;2.50;;;2.30;;
16472;SDS011;8347;52.486;13.432;2022-10-16T05:04:25;2.33;;;2.08;;
16472;SDS011;8347;52.486;13.432;2022-10-16T05:07:12;4.07;;;2.80;;
16472;SDS011;8347;52.486;13.432;2022-10-16T05:09:59;4.53;;;3.05;;
16472;SDS011;8347;52.486;13.432;2022-10-16T05:12:46;5.30;;;2.72;;
16472;SDS011;8347;52.486;13.432;2022-10-16T05:15:32;3.35;;;2.30;;
16472;SDS011;8347;52.486;13.432;2022-10-16T05:18:19;3.17;;;2.38;;
16472;SDS011;8347;52.486;13.432;2022-10-16T05:21:06;2.35;;;2.15;;
16472;SDS011;8347;52.486;13.432;2022-10-16T05:23:53;2.42;;;2.10;;
16472;SDS011;8347;52.486;13.432;2022-10-16T05:26:40;3.22;;;2.00;;
16472;SDS011;8347;52.486;13.432;2022-10-16T05:29:27;3.67;;;2.90;;
16472;SDS011;8347;52.486;13.432;2022-10-16T05:32:14;4.38;;;2.70;;
16472;SDS011;8347;52.486;13.432;2022-10-16T05:35:01;3.95;;;2.95;;
16472;SDS011;8347;52.486;13.432;2022-10-16T05:37:48;6.13;;;2.80;;
16472;SDS011;8347;52.486;13.432;2022-10-16T05:40:35;2.25;;;2.05;;
16472;SDS011;8347;52.486;13.432;2022-10-16T05:43:21;3.70;;;2.22;;
16472;SDS011;8347;52.486;13.432;2022-10-16T05:46:08;5.50;;;2.72;;
16472;SDS011;8347;52.486;13.432;2022-10-16T05:48:55;2.50;;;2.15;;
16472;SDS011;8347;52.486;13.432;2022-10-16T05:51:41;4.53;;;2.30;;
16472;SDS011;8347;52.486;13.432;2022-10-16T05:54:28;3.72;;;2.30;;
16472;SDS011;8347;52.486;13.432;2022-10-16T05:57:14;2.22;;;2.03;;
16472;SDS011;8347;52.486;13.432;2022-10-16T06:00:01;2.78;;;2.30;;
16472;SDS011;8347;52.486;13.432;2022-10-16T06:02:47;4.38;;;2.13;;
16472;SDS011;8347;52.486;13.432;2022-10-16T06:05:34;2.90;;;2.10;;
16472;SDS011;8347;52.486;13.432;2022-10-16T06:08:21;3.25;;;2.60;;
16472;SDS011;8347;52.486;13.432;2022-10-16T06:11:09;3.03;;;2.47;;
16472;SDS011;8347;52.486;13.432;2022-10-16T06:13:56;3.30;;;2.45;;
16472;SDS011;8347;52.486;13.432;2022-10-16T06:16:45;3.70;;;2.70;;
16472;SDS011;8347;52.486;13.432;2022-10-16T06:19:32;2.42;;;2.03;;
16472;SDS011;8347;52.486;13.432;2022-10-16T06:22:19;2.50;;;2.17;;
16472;SDS011;8347;52.486;13.432;2022-10-16T06:25:05;4.00;;;2.90;;
16472;SDS011;8347;52.486;13.432;2022-10-16T06:27:52;2.58;;;2.25;;
16472;SDS011;8347;52.486;13.432;2022-10-16T06:30:38;3.17;;;2.25;;
16472;SDS011;8347;52.486;13.432;2022-10-16T06:33:25;2.85;;;2.13;;
16472;SDS011;8347;52.486;13.432;2022-10-16T06:36:12;10.07;;;3.50;;
16472;SDS011;8347;52.486;13.432;2022-10-16T06:38:59;8.20;;;3.13;;
16472;SDS011;8347;52.486;13.432;2022-10-16T06:41:46;5.60;;;2.97;;
16472;SDS011;8347;52.486;13.432;2022-10-16T06:44:36;4.20;;;2.45;;
16472;SDS011;8347;52.486;13.432;2022-10-16T06:47:22;5.45;;;2.72;;
16472;SDS011;8347;52.486;13.432;2022-10-16T06:50:09;3.13;;;2.45;;
16472;SDS011;8347;52.486;13.432;2022-10-16T06:52:55;4.88;;;2.85;;
16472;SDS011;8347;52.486;13.432;2022-10-16T06:55:42;3.58;;;2.83;;
16472;SDS011;8347;52.486;13.432;2022-10-16T06:58:28;3.63;;;2.90;;
16472;SDS011;8347;52.486;13.432;2022-10-16T07:01:15;7.15;;;2.63;;
16472;SDS011;8347;52.486;13.432;2022-10-16T07:04:03;3.40;;;2.20;;
16472;SDS011;8347;52.486;13.432;2022-10-16T07:06:49;3.00;;;2.42;;
16472;SDS011;8347;52.486;13.432;2022-10-16T07:09:37;3.15;;;2.85;;
16472;SDS011;8347;52.486;13.432;2022-10-16T07:12:24;2.60;;;2.30;;
16472;SDS011;8347;52.486;13.432;2022-10-16T07:15:10;3.72;;;2.30;;
16472;SDS011;8347;52.486;13.432;2022-10-16T07:17:58;2.40;;;1.90;;
16472;SDS011;8347;52.486;13.432;2022-10-16T07:20:44;2.17;;;1.80;;
16472;SDS011;8347;52.486;13.432;2022-10-16T07:23:30;2.60;;;2.25;;
16472;SDS011;8347;52.486;13.432;2022-10-16T07:26:17;2.60;;;2.00;;
16472;SDS011;8347;52.486;13.432;2022-10-16T07:29:04;2.22;;;1.70;;
16472;SDS011;8347;52.486;13.432;2022-10-16T07:31:50;2.17;;;1.90;;
16472;SDS011;8347;52.486;13.432;2022-10-16T07:34:37;3.63;;;1.80;;
16472;SDS011;8347;52.486;13.432;2022-10-16T07:37:23;3.63;;;2.55;;
16472;SDS011;8347;52.486;13.432;2022-10-16T07:40:10;4.32;;;2.42;;
16472;SDS011;8347;52.486;13.432;2022-10-16T07:42:56;3.67;;;2.03;;
16472;SDS011;8347;52.486;13.432;2022-10-16T07:45:47;2.00;;;1.80;;
16472;SDS011;8347;52.486;13.432;2022-10-16T07:48:34;1.92;;;1.73;;
16472;SDS011;8347;52.486;13.432;2022-10-16T07:51:22;2.25;;;1.40;;
16472;SDS011;8347;52.486;13.432;2022-10-16T07:54:09;2.03;;;1.73;;
16472;SDS011;8347;52.486;13.432;2022-10-16T07:56:55;4.78;;;2.67;;
16472;SDS011;8347;52.486;13.432;2022-10-16T07:59:42;3.10;;;2.28;;
16472;SDS011;8347;52.486;13.432;2022-10-16T08:02:28;4.85;;;2.40;;
16472;SDS011;8347;52.486;13.432;2022-10-16T08:05:14;4.35;;;1.67;;
16472;SDS011;8347;52.486;13.432;2022-10-16T08:08:01;3.67;;;1.98;;
16472;SDS011;8347;52.486;13.432;2022-10-16T08:10:48;3.92;;;2.70;;
16472;SDS011;8347;52.486;13.432;2022-10-16T08:13:34;2.85;;;1.85;;
16472;SDS011;8347;52.486;13.432;2022-10-16T08:16:21;1.83;;;1.55;;
16472;SDS011;8347;52.486;13.432;2022-10-16T08:19:08;2.15;;;1.50;;
16472;SDS011;8347;52.486;13.432;2022-10-16T08:21:54;1.88;;;1.60;;
16472;SDS011;8347;52.486;13.432;2022-10-16T08:24:40;3.70;;;1.80;;
16472;SDS011;8347;52.486;13.432;2022-10-16T08:27:31;2.15;;;1.58;;
16472;SDS011;8347;52.486;13.432;2022-10-16T08:30:18;2.10;;;1.50;;
16472;SDS011;8347;52.486;13.432;2022-10-16T08:33:06;4.50;;;1.60;;
16472;SDS011;8347;52.486;13.432;2022-10-16T08:35:52;2.30;;;1.77;;
16472;SDS011;8347;52.486;13.432;2022-10-16T08:38:39;2.40;;;2.00;;
16472;SDS011;8347;52.486;13.432;2022-10-16T08:41:30;2.83;;;1.88;;
16472;SDS011;8347;52.486;13.432;2022-10-16T08:44:37;2.80;;;1.33;;
16472;SDS011;8347;52.486;13.432;2022-10-16T08:47:26;2.28;;;1.40;;
16472;SDS011;8347;52.486;13.432;2022-10-16T08:50:29;2.10;;;1.70;;
16472;SDS011;8347;52.486;13.432;2022-10-16T08:53:28;2.33;;;2.10;;
16472;SDS011;8347;52.486;13.432;2022-10-16T08:56:21;5.20;;;1.67;;
16472;SDS011;8347;52.486;13.432;2022-10-16T08:59:09;2.17;;;1.92;;
16472;SDS011;8347;52.486;13.432;2022-10-16T09:01:56;2.75;;;1.20;;
16472;SDS011;8347;52.486;13.432;2022-10-16T09:07:39;1.63;;;1.48;;
16472;SDS011;8347;52.486;13.432;2022-10-16T09:10:46;2.30;;;1.80;;
16472;SDS011;8347;52.486;13.432;2022-10-16T09:13:36;1.52;;;1.33;;
16472;SDS011;8347;52.486;13.432;2022-10-16T09:16:28;3.63;;;1.50;;
16472;SDS011;8347;52.486;13.432;2022-10-16T09:19:31;1.83;;;1.70;;
16472;SDS011;8347;52.486;13.432;2022-10-16T09:22:19;3.15;;;1.35;;
16472;SDS011;8347;52.486;13.432;2022-10-16T09:25:12;1.60;;;1.50;;
16472;SDS011;8347;52.486;13.432;2022-10-16T09:27:59;2.80;;;1.75;;
16472;SDS011;8347;52.486;13.432;2022-10-16T09:30:46;4.90;;;2.17;;
16472;SDS011;8347;52.486;13.432;2022-10-16T09:33:37;5.30;;;2.00;;
16472;SDS011;8347;52.486;13.432;2022-10-16T09:36:26;2.20;;;1.65;;
16472;SDS011;8347;52.486;13.432;2022-10-16T09:39:14;2.58;;;1.55;;
16472;SDS011;8347;52.486;13.432;2022-10-16T09:42:03;3.53;;;1.45;;
16472;SDS011;8347;52.486;13.432;2022-10-16T09:44:50;2.78;;;2.10;;
16472;SDS011;8347;52.486;13.432;2022-10-16T09:47:39;4.28;;;2.08;;
16472;SDS011;8347;52.486;13.432;2022-10-16T09:50:28;4.22;;;1.38;;
16472;SDS011;8347;52.486;13.432;2022-10-16T09:53:14;1.65;;;1.45;;
16472;SDS011;8347;52.486;13.432;2022-10-16T09:56:04;3.13;;;1.83;;
16472;SDS011;8347;52.486;13.432;2022-10-16T09:58:56;2.22;;;1.98;;
16472;SDS011;8347;52.486;13.432;2022-10-16T10:01:46;5.13;;;1.98;;
16472;SDS011;8347;52.486;13.432;2022-10-16T10:04:41;1.83;;;1.73;;
16472;SDS011;8347;52.486;13.432;2022-10-16T10:07:31;2.17;;;1.85;;
16472;SDS011;8347;52.486;13.432;2022-10-16T10:10:24;1.60;;;1.50;;
16472;SDS011;8347;52.486;13.432;2022-10-16T10:13:21;2.20;;;1.90;;
16472;SDS011;8347;52.486;13.432;2022-10-16T10:16:08;1.98;;;1.52;;
16472;SDS011;8347;52.486;13.432;2022-10-16T10:18:59;5.25;;;1.90;;
16472;SDS011;8347;52.486;13.432;2022-10-16T10:21:45;4.32;;;2.63;;
16472;SDS011;8347;52.486;13.432;2022-10-16T10:24:32;3.08;;;2.28;;
16472;SDS011;8347;52.486;13.432;2022-10-16T10:27:19;4.35;;;2.78;;
16472;SDS011;8347;52.486;13.432;2022-10-16T10:30:23;3.50;;;2.17;;
16472;SDS011;8347;52.486;13.432;2022-10-16T10:36:14;8.88;;;3.10;;
16472;SDS011;8347;52.486;13.432;2022-10-16T10:39:04;5.05;;;2.60;;
16472;SDS011;8347;52.486;13.432;2022-10-16T10:47:48;12.25;;;6.18;;
16472;SDS011;8347;52.486;13.432;2022-10-16T10:51:20;7.60;;;3.45;;
16472;SDS011;8347;52.486;13.432;2022-10-16T10:54:23;5.40;;;2.35;;
16472;SDS011;8347;52.486;13.432;2022-10-16T10:57:19;6.65;;;1.75;;
16472;SDS011;8347;52.486;13.432;2022-10-16T11:00:21;4.03;;;1.80;;
16472;SDS011;8347;52.486;13.432;2022-10-16T11:03:35;3.63;;;2.28;;
16472;SDS011;8347;52.486;13.432;2022-10-16T11:06:36;2.40;;;1.77;;
16472;SDS011;8347;52.486;13.432;2022-10-16T11:09:37;3.67;;;2.60;;
16472;SDS011;8347;52.486;13.432;2022-10-16T11:12:29;6.85;;;1.88;;
16472;SDS011;8347;52.486;13.432;2022-10-16T11:15:18;3.65;;;2.05;;
16472;SDS011;8347;52.486;13.432;2022-10-16T11:18:15;3.78;;;2.10;;
16472;SDS011;8347;52.486;13.432;2022-10-16T11:21:04;5.15;;;2.15;;
16472;SDS011;8347;52.486;13.432;2022-10-16T11:24:03;3.67;;;1.92;;
16472;SDS011;8347;52.486;13.432;2022-10-16T11:26:50;2.17;;;1.38;;
16472;SDS011;8347;52.486;13.432;2022-10-16T11:29:43;2.53;;;1.48;;
16472;SDS011;8347;52.486;13.432;2022-10-16T14:01:56;4.40;;;2.80;;
16472;SDS011;8347;52.486;13.432;2022-10-16T14:04:43;5.82;;;2.20;;
16472;SDS011;8347;52.486;13.432;2022-10-16T14:07:31;26.75;;;8.98;;
16472;SDS011;8347;52.486;13.432;2022-10-16T14:10:22;9.25;;;5.00;;
16472;SDS011;8347;52.486;13.432;2022-10-16T14:13:19;5.35;;;3.35;;
16472;SDS011;8347;52.486;13.432;2022-10-16T14:16:22;7.40;;;3.85;;
16472;SDS011;8347;52.486;13.432;2022-10-16T14:19:13;7.03;;;5.13;;
16472;SDS011;8347;52.486;13.432;2022-10-16T14:22:30;9.73;;;4.63;;
16472;SDS011;8347;52.486;13.432;2022-10-16T14:25:21;6.85;;;4.32;;
16472;SDS011;8347;52.486;13.432;2022-10-16T14:34:27;7.70;;;4.30;;
16472;SDS011;8347;52.486;13.432;2022-10-16T14:37:25;11.77;;;7.43;;
16472;SDS011;8347;52.486;13.432;2022-10-16T14:40:15;12.40;;;6.80;;
16472;SDS011;8347;52.486;13.432;2022-10-16T14:43:03;14.13;;;7.82;;
16472;SDS011;8347;52.486;13.432;2022-10-16T14:45:51;18.02;;;10.38;;
16472;SDS011;8347;52.486;13.432;2022-10-16T14:48:43;8.90;;;6.30;;
16472;SDS011;8347;52.486;13.432;2022-10-16T14:51:30;10.48;;;6.45;;
16472;SDS011;8347;52.486;13.432;2022-10-16T14:54:17;8.60;;;6.53;;
16472;SDS011;8347;52.486;13.432;2022-10-16T14:57:04;8.52;;;4.88;;
16472;SDS011;8347;52.486;13.432;2022-10-16T14:59:50;5.82;;;3.55;;
16472;SDS011;8347;52.486;13.432;2022-10-16T15:02:37;8.77;;;5.90;;
16472;SDS011;8347;52.486;13.432;2022-10-16T15:05:25;16.63;;;9.27;;
16472;SDS011;8347;52.486;13.432;2022-10-16T15:08:12;18.90;;;10.48;;
16472;SDS011;8347;52.486;13.432;2022-10-16T15:10:58;14.68;;;9.13;;
16472;SDS011;8347;52.486;13.432;2022-10-16T15:13:45;11.38;;;7.10;;
16472;SDS011;8347;52.486;13.432;2022-10-16T15:16:32;9.77;;;6.13;;
16472;SDS011;8347;52.486;13.432;2022-10-16T15:19:18;7.38;;;4.13;;
16472;SDS011;8347;52.486;13.432;2022-10-16T15:22:05;9.95;;;5.50;;
16472;SDS011;8347;52.486;13.432;2022-10-16T15:24:52;9.55;;;5.30;;
16472;SDS011;8347;52.486;13.432;2022-10-16T15:27:38;11.68;;;5.70;;
16472;SDS011;8347;52.486;13.432;2022-10-16T15:30:26;11.60;;;6.07;;
16472;SDS011;8347;52.486;13.432;2022-10-16T15:33:14;7.68;;;5.82;;
16472;SDS011;8347;52.486;13.432;2022-10-16T15:36:01;19.58;;;12.95;;
16472;SDS011;8347;52.486;13.432;2022-10-16T15:38:48;31.42;;;17.40;;
16472;SDS011;8347;52.486;13.432;2022-10-16T15:41:34;23.10;;;12.90;;
16472;SDS011;8347;52.486;13.432;2022-10-16T15:44:21;14.82;;;8.93;;
16472;SDS011;8347;52.486;13.432;2022-10-16T15:47:15;13.48;;;7.10;;
16472;SDS011;8347;52.486;13.432;2022-10-16T15:50:02;15.02;;;9.40;;
16472;SDS011;8347;52.486;13.432;2022-10-16T15:52:49;18.08;;;11.38;;
16472;SDS011;8347;52.486;13.432;2022-10-16T15:55:36;16.70;;;11.05;;
16472;SDS011;8347;52.486;13.432;2022-10-16T15:58:23;19.00;;;12.57;;
16472;SDS011;8347;52.486;13.432;2022-10-16T16:01:10;25.52;;;14.55;;
16472;SDS011;8347;52.486;13.432;2022-10-16T16:03:56;26.35;;;14.35;;
16472;SDS011;8347;52.486;13.432;2022-10-16T16:06:43;23.33;;;13.60;;
16472;SDS011;8347;52.486;13.432;2022-10-16T16:09:32;19.08;;;11.60;;
16472;SDS011;8347;52.486;13.432;2022-10-16T16:12:19;23.30;;;11.95;;
16472;SDS011;8347;52.486;13.432;2022-10-16T16:15:07;24.13;;;13.25;;
16472;SDS011;8347;52.486;13.432;2022-10-16T16:17:53;22.65;;;12.77;;
16472;SDS011;8347;52.486;13.432;2022-10-16T16:20:40;18.20;;;11.23;;
16472;SDS011;8347;52.486;13.432;2022-10-16T16:23:26;21.33;;;12.18;;
16472;SDS011;8347;52.486;13.432;2022-10-16T16:26:22;23.52;;;12.85;;
16472;SDS011;8347;52.486;13.432;2022-10-16T16:29:12;20.52;;;11.38;;
16472;SDS011;8347;52.486;13.432;2022-10-16T16:32:00;22.92;;;10.77;;
16472;SDS011;8347;52.486;13.432;2022-10-16T16:34:47;20.75;;;12.25;;
16472;SDS011;8347;52.486;13.432;2022-10-16T16:37:33;43.90;;;21.67;;
16472;SDS011;8347;52.486;13.432;2022-10-16T16:40:20;45.88;;;28.25;;
16472;SDS011;8347;52.486;13.432;2022-10-16T16:43:06;33.20;;;18.73;;
16472;SDS011;8347;52.486;13.432;2022-10-16T16:45:53;29.17;;;17.27;;
16472;SDS011;8347;52.486;13.432;2022-10-16T16:48:40;25.67;;;15.25;;
16472;SDS011;8347;52.486;13.432;2022-10-16T16:51:27;27.88;;;15.55;;
16472;SDS011;8347;52.486;13.432;2022-10-16T16:54:14;19.83;;;11.85;;
16472;SDS011;8347;52.486;13.432;2022-10-16T16:57:01;20.05;;;12.50;;
16472;SDS011;8347;52.486;13.432;2022-10-16T16:59:49;20.00;;;11.77;;
16472;SDS011;8347;52.486;13.432;2022-10-16T17:02:37;21.33;;;12.18;;
16472;SDS011;8347;52.486;13.432;2022-10-16T17:05:28;26.30;;;15.05;;
16472;SDS011;8347;52.486;13.432;2022-10-16T17:08:15;24.88;;;14.75;;
16472;SDS011;8347;52.486;13.432;2022-10-16T17:11:02;30.75;;;17.25;;
16472;SDS011;8347;52.486;13.432;2022-10-16T17:13:49;37.50;;;22.77;;
16472;SDS011;8347;52.486;13.432;2022-10-16T17:16:37;40.60;;;23.08;;
16472;SDS011;8347;52.486;13.432;2022-10-16T17:19:24;32.75;;;17.60;;
16472;SDS011;8347;52.486;13.432;2022-10-16T17:22:10;32.78;;;16.70;;
16472;SDS011;8347;52.486;13.432;2022-10-16T17:24:57;33.22;;;15.35;;
16472;SDS011;8347;52.486;13.432;2022-10-16T17:27:44;28.10;;;16.25;;
16472;SDS011;8347;52.486;13.432;2022-10-16T17:30:30;27.92;;;17.77;;
16472;SDS011;8347;52.486;13.432;2022-10-16T17:33:16;24.95;;;14.77;;
16472;SDS011;8347;52.486;13.432;2022-10-16T17:36:03;28.52;;;16.02;;
16472;SDS011;8347;52.486;13.432;2022-10-16T17:38:50;25.15;;;16.17;;
16472;SDS011;8347;52.486;13.432;2022-10-16T17:41:37;23.95;;;15.20;;
16472;SDS011;8347;52.486;13.432;2022-10-16T17:44:23;22.33;;;15.18;;
16472;SDS011;8347;52.486;13.432;2022-10-16T17:47:10;41.97;;;22.58;;
16472;SDS011;8347;52.486;13.432;2022-10-16T17:49:57;38.80;;;22.45;;
16472;SDS011;8347;52.486;13.432;2022-10-16T17:52:44;28.98;;;15.85;;
16472;SDS011;8347;52.486;13.432;2022-10-16T17:55:31;25.08;;;15.25;;
16472;SDS011;8347;52.486;13.432;2022-10-16T17:58:21;30.95;;;18.17;;
16472;SDS011;8347;52.486;13.432;2022-10-16T18:01:12;29.67;;;18.70;;
16472;SDS011;8347;52.486;13.432;2022-10-16T18:04:01;20.40;;;12.95;;
16472;SDS011;8347;52.486;13.432;2022-10-16T18:06:49;22.95;;;13.68;;
16472;SDS011;8347;52.486;13.432;2022-10-16T18:09:36;23.40;;;15.18;;
16472;SDS011;8347;52.486;13.432;2022-10-16T18:12:23;26.33;;;14.23;;
16472;SDS011;8347;52.486;13.432;2022-10-16T18:15:09;27.08;;;15.10;;
16472;SDS011;8347;52.486;13.432;2022-10-16T18:17:56;25.60;;;15.27;;
16472;SDS011;8347;52.486;13.432;2022-10-16T18:20:43;24.52;;;14.93;;
16472;SDS011;8347;52.486;13.432;2022-10-16T18:23:29;19.60;;;12.38;;
16472;SDS011;8347;52.486;13.432;2022-10-16T18:26:18;20.75;;;13.40;;
16472;SDS011;8347;52.486;13.432;2022-10-16T18:29:06;25.10;;;14.95;;
16472;SDS011;8347;52.486;13.432;2022-10-16T18:31:52;27.48;;;16.60;;
16472;SDS011;8347;52.486;13.432;2022-10-16T18:34:39;27.38;;;15.88;;
16472;SDS011;8347;52.486;13.432;2022-10-16T18:37:25;21.27;;;13.98;;
16472;SDS011;8347;52.486;13.432;2022-10-16T18:40:12;24.42;;;15.13;;
16472;SDS011;8347;52.486;13.432;2022-10-16T18:42:58;21.88;;;13.18;;
16472;SDS011;8347;52.486;13.432;2022-10-16T18:45:53;24.10;;;14.65;;
16472;SDS011;8347;52.486;13.432;2022-10-16T18:48:40;23.73;;;13.80;;
16472;SDS011;8347;52.486;13.432;2022-10-16T18:51:28;21.58;;;13.90;;
16472;SDS011;8347;52.486;13.432;2022-10-16T18:54:19;22.88;;;13.80;;
16472;SDS011;8347;52.486;13.432;2022-10-16T18:57:06;22.33;;;14.38;;
16472;SDS011;8347;52.486;13.432;2022-10-16T18:59:52;24.75;;;14.88;;
16472;SDS011;8347;52.486;13.432;2022-10-16T19:02:39;26.75;;;14.35;;
16472;SDS011;8347;52.486;13.432;2022-10-16T19:05:25;21.25;;;14.48;;
16472;SDS011;8347;52.486;13.432;2022-10-16T19:08:12;21.33;;;14.18;;
16472;SDS011;8347;52.486;13.432;2022-10-16T19:11:06;26.00;;;14.88;;
16472;SDS011;8347;52.486;13.432;2022-10-16T19:13:55;23.63;;;14.82;;
16472;SDS011;8347;52.486;13.432;2022-10-16T19:16:42;21.10;;;12.82;;
16472;SDS011;8347;52.486;13.432;2022-10-16T19:19:28;24.60;;;13.05;;
16472;SDS011;8347;52.486;13.432;2022-10-16T19:22:15;22.45;;;13.88;;
16472;SDS011;8347;52.486;13.432;2022-10-16T19:25:15;21.27;;;13.70;;
16472;SDS011;8347;52.486;13.432;2022-10-16T19:28:01;27.60;;;14.90;;
16472;SDS011;8347;52.486;13.432;2022-10-16T19:30:52;19.42;;;12.73;;
16472;SDS011;8347;52.486;13.432;2022-10-16T19:33:38;25.10;;;13.65;;
16472;SDS011;8347;52.486;13.432;2022-10-16T19:36:26;20.00;;;12.15;;
16472;SDS011;8347;52.486;13.432;2022-10-16T19:39:14;22.85;;;15.05;;
16472;SDS011;8347;52.486;13.432;2022-10-16T19:42:01;28.77;;;16.60;;
16472;SDS011;8347;52.486;13.432;2022-10-16T19:44:48;21.77;;;15.50;;
16472;SDS011;8347;52.486;13.432;2022-10-16T19:47:35;22.90;;;14.38;;
16472;SDS011;8347;52.486;13.432;2022-10-16T19:50:22;22.08;;;13.70;;
16472;SDS011;8347;52.486;13.432;2022-10-16T19:53:08;20.48;;;12.40;;
16472;SDS011;8347;52.486;13.432;2022-10-16T19:55:55;19.10;;;11.43;;
16472;SDS011;8347;52.486;13.432;2022-10-16T19:58:42;20.10;;;12.73;;
16472;SDS011;8347;52.486;13.432;2022-10-16T20:01:29;22.13;;;11.63;;
16472;SDS011;8347;52.486;13.432;2022-10-16T20:04:16;18.55;;;11.40;;
16472;SDS011;8347;52.486;13.432;2022-10-16T20:07:02;17.80;;;10.98;;
16472;SDS011;8347;52.486;13.432;2022-10-16T20:09:49;22.35;;;14.57;;
16472;SDS011;8347;52.486;13.432;2022-10-16T20:12:36;25.20;;;14.27;;
16472;SDS011;8347;52.486;13.432;2022-10-16T20:15:22;21.83;;;14.77;;
16472;SDS011;8347;52.486;13.432;2022-10-16T20:18:09;22.92;;;15.35;;
16472;SDS011;8347;52.486;13.432;2022-10-16T20:20:55;26.92;;;14.93;;
16472;SDS011;8347;52.486;13.432;2022-10-16T20:23:42;21.20;;;14.20;;
16472;SDS011;8347;52.486;13.432;2022-10-16T20:26:29;20.33;;;13.70;;
16472;SDS011;8347;52.486;13.432;2022-10-16T20:29:16;22.30;;;14.52;;
16472;SDS011;8347;52.486;13.432;2022-10-16T20:32:02;23.05;;;14.20;;
16472;SDS011;8347;52.486;13.432;2022-10-16T20:34:49;21.05;;;13.75;;
16472;SDS011;8347;52.486;13.432;2022-10-16T20:37:36;26.10;;;16.00;;
16472;SDS011;8347;52.486;13.432;2022-10-16T20:40:22;26.17;;;16.42;;
16472;SDS011;8347;52.486;13.432;2022-10-16T20:43:10;22.02;;;14.40;;
16472;SDS011;8347;52.486;13.432;2022-10-16T20:46:01;21.80;;;14.63;;
16472;SDS011;8347;52.486;13.432;2022-10-16T20:48:50;21.00;;;14.35;;
16472;SDS011;8347;52.486;13.432;2022-10-16T20:51:37;21.40;;;14.40;;
16472;SDS011;8347;52.486;13.432;2022-10-16T20:54:23;22.73;;;14.55;;
16472;SDS011;8347;52.486;13.432;2022-10-16T20:57:10;20.58;;;14.02;;
16472;SDS011;8347;52.486;13.432;2022-10-16T20:59:56;23.92;;;14.90;;
16472;SDS011;8347;52.486;13.432;2022-10-16T21:02:43;20.27;;;13.07;;
16472;SDS011;8347;52.486;13.432;2022-10-16T21:05:29;20.00;;;13.30;;
16472;SDS011;8347;52.486;13.432;2022-10-16T21:08:19;24.25;;;13.50;;
16472;SDS011;8347;52.486;13.432;2022-10-16T21:11:16;20.65;;;13.93;;
16472;SDS011;8347;52.486;13.432;2022-10-16T21:14:07;21.75;;;13.70;;
16472;SDS011;8347;52.486;13.432;2022-10-16T21:16:54;19.45;;;12.70;;
16472;SDS011;8347;52.486;13.432;2022-10-16T21:19:41;19.65;;;13.95;;
16472;SDS011;8347;52.486;13.432;2022-10-16T21:22:28;20.55;;;13.65;;
16472;SDS011;8347;52.486;13.432;2022-10-16T21:25:15;19.63;;;11.82;;
16472;SDS011;8347;52.486;13.432;2022-10-16T21:28:01;17.00;;;11.85;;
16472;SDS011;8347;52.486;13.432;2022-10-16T21:30:48;22.58;;;11.98;;
16472;SDS011;8347;52.486;13.432;2022-10-16T21:33:35;18.83;;;11.85;;
16472;SDS011;8347;52.486;13.432;2022-10-16T21:36:22;14.98;;;11.05;;
16472;SDS011;8347;52.486;13.432;2022-10-16T21:39:10;16.33;;;10.80;;
16472;SDS011;8347;52.486;13.432;2022-10-16T21:41:57;18.52;;;10.90;;
16472;SDS011;8347;52.486;13.432;2022-10-16T21:44:43;19.85;;;12.57;;
16472;SDS011;8347;52.486;13.432;2022-10-16T21:47:30;16.27;;;11.65;;
16472;SDS011;8347;52.486;13.432;2022-10-16T21:50:18;15.07;;;10.65;;
16472;SDS011;8347;52.486;13.432;2022-10-16T21:53:05;19.80;;;12.20;;
16472;SDS011;8347;52.486;13.432;2022-10-16T21:55:51;13.75;;;11.02;;
16472;SDS011;8347;52.486;13.432;2022-10-16T21:58:38;15.60;;;10.90;;
